sensor_id;sensor_type;location;lat;lon;timestamp;P1;durP1;ratioP1;P2;durP2;ratioP2
23121;SDS011;11730;51.248;22.534;2023-02-26T00:01:21;18.63;;;10.52;;
23121;SDS011;11730;51.248;22.534;2023-02-26T00:03:50;15.00;;;9.45;;
23121;SDS011;11730;51.248;22.534;2023-02-26T00:06:18;16.92;;;9.57;;
23121;SDS011;11730;51.248;22.534;2023-02-26T00:08:45;15.60;;;9.30;;
23121;SDS011;11730;51.248;22.534;2023-02-26T00:11:12;13.95;;;8.93;;
23121;SDS011;11730;51.248;22.534;2023-02-26T00:13:41;13.80;;;9.73;;
23121;SDS011;11730;51.248;22.534;2023-02-26T00:19:03;14.90;;;8.82;;
23121;SDS011;11730;51.248;22.534;2023-02-26T00:21:31;18.55;;;10.65;;
23121;SDS011;11730;51.248;22.534;2023-02-26T00:23:59;15.02;;;10.25;;
23121;SDS011;11730;51.248;22.534;2023-02-26T00:26:28;14.43;;;9.85;;
23121;SDS011;11730;51.248;22.534;2023-02-26T00:28:56;17.40;;;11.30;;
23121;SDS011;11730;51.248;22.534;2023-02-26T00:31:24;18.02;;;11.48;;
23121;SDS011;11730;51.248;22.534;2023-02-26T00:33:52;20.50;;;11.68;;
23121;SDS011;11730;51.248;22.534;2023-02-26T00:36:22;18.77;;;10.98;;
23121;SDS011;11730;51.248;22.534;2023-02-26T00:41:23;15.82;;;10.68;;
23121;SDS011;11730;51.248;22.534;2023-02-26T00:43:50;13.85;;;9.05;;
23121;SDS011;11730;51.248;22.534;2023-02-26T00:46:29;12.73;;;8.70;;
23121;SDS011;11730;51.248;22.534;2023-02-26T00:52:05;10.95;;;8.48;;
23121;SDS011;11730;51.248;22.534;2023-02-26T00:54:39;11.43;;;9.00;;
23121;SDS011;11730;51.248;22.534;2023-02-26T00:57:06;14.98;;;8.38;;
23121;SDS011;11730;51.248;22.534;2023-02-26T00:59:33;12.55;;;8.90;;
23121;SDS011;11730;51.248;22.534;2023-02-26T01:02:00;14.63;;;9.50;;
23121;SDS011;11730;51.248;22.534;2023-02-26T01:04:28;11.32;;;9.18;;
23121;SDS011;11730;51.248;22.534;2023-02-26T01:06:56;14.45;;;8.93;;
23121;SDS011;11730;51.248;22.534;2023-02-26T01:11:56;13.52;;;10.20;;
23121;SDS011;11730;51.248;22.534;2023-02-26T01:14:28;15.00;;;10.30;;
23121;SDS011;11730;51.248;22.534;2023-02-26T01:17:05;13.43;;;9.68;;
23121;SDS011;11730;51.248;22.534;2023-02-26T01:25:04;13.48;;;9.93;;
23121;SDS011;11730;51.248;22.534;2023-02-26T01:27:33;14.15;;;9.57;;
23121;SDS011;11730;51.248;22.534;2023-02-26T01:30:01;13.07;;;8.95;;
23121;SDS011;11730;51.248;22.534;2023-02-26T01:32:41;12.77;;;9.00;;
23121;SDS011;11730;51.248;22.534;2023-02-26T01:44:15;11.77;;;9.02;;
23121;SDS011;11730;51.248;22.534;2023-02-26T01:49:26;15.45;;;10.55;;
23121;SDS011;11730;51.248;22.534;2023-02-26T01:51:55;16.35;;;9.65;;
23121;SDS011;11730;51.248;22.534;2023-02-26T01:54:30;12.23;;;9.40;;
23121;SDS011;11730;51.248;22.534;2023-02-26T01:59:35;13.57;;;10.00;;
23121;SDS011;11730;51.248;22.534;2023-02-26T02:02:06;13.98;;;10.00;;
23121;SDS011;11730;51.248;22.534;2023-02-26T02:04:35;17.10;;;10.70;;
23121;SDS011;11730;51.248;22.534;2023-02-26T02:07:04;12.63;;;9.85;;
23121;SDS011;11730;51.248;22.534;2023-02-26T02:09:32;13.68;;;9.95;;
23121;SDS011;11730;51.248;22.534;2023-02-26T02:12:14;16.30;;;10.43;;
23121;SDS011;11730;51.248;22.534;2023-02-26T02:17:37;13.95;;;10.25;;
23121;SDS011;11730;51.248;22.534;2023-02-26T02:20:28;13.23;;;9.73;;
23121;SDS011;11730;51.248;22.534;2023-02-26T02:23:24;13.60;;;10.20;;
23121;SDS011;11730;51.248;22.534;2023-02-26T02:29:08;13.80;;;10.18;;
23121;SDS011;11730;51.248;22.534;2023-02-26T02:31:57;12.82;;;9.68;;
23121;SDS011;11730;51.248;22.534;2023-02-26T02:37:04;12.63;;;8.32;;
23121;SDS011;11730;51.248;22.534;2023-02-26T02:44:40;12.95;;;9.27;;
23121;SDS011;11730;51.248;22.534;2023-02-26T02:47:11;13.10;;;9.18;;
23121;SDS011;11730;51.248;22.534;2023-02-26T02:49:44;11.20;;;8.25;;
23121;SDS011;11730;51.248;22.534;2023-02-26T02:52:16;12.00;;;9.02;;
23121;SDS011;11730;51.248;22.534;2023-02-26T02:54:50;11.63;;;8.70;;
23121;SDS011;11730;51.248;22.534;2023-02-26T02:58:00;11.27;;;8.38;;
23121;SDS011;11730;51.248;22.534;2023-02-26T03:00:29;11.63;;;8.55;;
23121;SDS011;11730;51.248;22.534;2023-02-26T03:06:01;11.95;;;8.02;;
23121;SDS011;11730;51.248;22.534;2023-02-26T03:08:30;11.70;;;8.30;;
23121;SDS011;11730;51.248;22.534;2023-02-26T03:11:03;9.38;;;8.20;;
23121;SDS011;11730;51.248;22.534;2023-02-26T03:13:31;10.10;;;7.68;;
23121;SDS011;11730;51.248;22.534;2023-02-26T03:16:09;8.38;;;7.50;;
23121;SDS011;11730;51.248;22.534;2023-02-26T03:32:18;9.75;;;7.07;;
23121;SDS011;11730;51.248;22.534;2023-02-26T03:35:00;9.05;;;6.75;;
23121;SDS011;11730;51.248;22.534;2023-02-26T03:37:36;7.47;;;6.38;;
23121;SDS011;11730;51.248;22.534;2023-02-26T03:40:23;7.93;;;6.32;;
23121;SDS011;11730;51.248;22.534;2023-02-26T03:43:17;7.15;;;5.43;;
23121;SDS011;11730;51.248;22.534;2023-02-26T03:45:45;8.15;;;5.55;;
23121;SDS011;11730;51.248;22.534;2023-02-26T03:48:16;8.95;;;5.50;;
23121;SDS011;11730;51.248;22.534;2023-02-26T03:50:45;6.50;;;5.53;;
23121;SDS011;11730;51.248;22.534;2023-02-26T03:53:17;6.97;;;5.40;;
23121;SDS011;11730;51.248;22.534;2023-02-26T03:55:59;6.47;;;5.55;;
23121;SDS011;11730;51.248;22.534;2023-02-26T03:58:27;7.43;;;5.35;;
23121;SDS011;11730;51.248;22.534;2023-02-26T04:00:58;7.15;;;5.90;;
23121;SDS011;11730;51.248;22.534;2023-02-26T04:06:39;8.30;;;6.15;;
23121;SDS011;11730;51.248;22.534;2023-02-26T04:09:07;8.45;;;6.28;;
23121;SDS011;11730;51.248;22.534;2023-02-26T04:11:34;8.75;;;6.75;;
23121;SDS011;11730;51.248;22.534;2023-02-26T04:14:02;12.40;;;7.68;;
23121;SDS011;11730;51.248;22.534;2023-02-26T04:16:29;8.73;;;6.50;;
23121;SDS011;11730;51.248;22.534;2023-02-26T04:18:56;8.32;;;6.30;;
23121;SDS011;11730;51.248;22.534;2023-02-26T04:21:23;7.45;;;5.82;;
23121;SDS011;11730;51.248;22.534;2023-02-26T04:23:50;7.18;;;5.38;;
23121;SDS011;11730;51.248;22.534;2023-02-26T04:26:17;5.63;;;4.72;;
23121;SDS011;11730;51.248;22.534;2023-02-26T04:28:44;4.95;;;4.45;;
23121;SDS011;11730;51.248;22.534;2023-02-26T04:31:11;5.20;;;4.45;;
23121;SDS011;11730;51.248;22.534;2023-02-26T04:33:39;6.25;;;4.35;;
23121;SDS011;11730;51.248;22.534;2023-02-26T04:36:06;5.13;;;4.63;;
23121;SDS011;11730;51.248;22.534;2023-02-26T04:38:34;5.45;;;4.32;;
23121;SDS011;11730;51.248;22.534;2023-02-26T04:41:01;6.60;;;4.28;;
23121;SDS011;11730;51.248;22.534;2023-02-26T04:43:29;6.35;;;4.53;;
23121;SDS011;11730;51.248;22.534;2023-02-26T04:45:55;4.75;;;4.15;;
23121;SDS011;11730;51.248;22.534;2023-02-26T04:48:22;5.22;;;4.00;;
23121;SDS011;11730;51.248;22.534;2023-02-26T04:50:50;5.38;;;4.63;;
23121;SDS011;11730;51.248;22.534;2023-02-26T04:53:17;7.10;;;4.82;;
23121;SDS011;11730;51.248;22.534;2023-02-26T04:55:46;6.20;;;4.57;;
23121;SDS011;11730;51.248;22.534;2023-02-26T04:58:17;5.80;;;4.15;;
23121;SDS011;11730;51.248;22.534;2023-02-26T05:00:47;5.03;;;4.10;;
23121;SDS011;11730;51.248;22.534;2023-02-26T05:03:15;5.45;;;4.13;;
23121;SDS011;11730;51.248;22.534;2023-02-26T05:05:42;6.03;;;4.53;;
23121;SDS011;11730;51.248;22.534;2023-02-26T05:08:09;5.43;;;4.70;;
23121;SDS011;11730;51.248;22.534;2023-02-26T05:10:36;6.22;;;4.40;;
23121;SDS011;11730;51.248;22.534;2023-02-26T05:13:04;5.05;;;4.43;;
23121;SDS011;11730;51.248;22.534;2023-02-26T05:15:31;5.68;;;4.07;;
23121;SDS011;11730;51.248;22.534;2023-02-26T05:17:59;5.65;;;4.55;;
23121;SDS011;11730;51.248;22.534;2023-02-26T05:20:26;6.00;;;4.50;;
23121;SDS011;11730;51.248;22.534;2023-02-26T05:22:53;6.80;;;4.88;;
23121;SDS011;11730;51.248;22.534;2023-02-26T05:25:20;5.50;;;4.35;;
23121;SDS011;11730;51.248;22.534;2023-02-26T05:27:47;5.20;;;4.32;;
23121;SDS011;11730;51.248;22.534;2023-02-26T05:30:15;6.85;;;4.72;;
23121;SDS011;11730;51.248;22.534;2023-02-26T05:32:42;7.70;;;4.75;;
23121;SDS011;11730;51.248;22.534;2023-02-26T05:35:10;6.03;;;5.13;;
23121;SDS011;11730;51.248;22.534;2023-02-26T05:37:37;4.45;;;3.95;;
23121;SDS011;11730;51.248;22.534;2023-02-26T05:40:05;5.03;;;4.05;;
23121;SDS011;11730;51.248;22.534;2023-02-26T05:42:36;5.25;;;4.07;;
23121;SDS011;11730;51.248;22.534;2023-02-26T05:45:04;4.47;;;3.80;;
23121;SDS011;11730;51.248;22.534;2023-02-26T05:47:32;8.25;;;5.65;;
23121;SDS011;11730;51.248;22.534;2023-02-26T05:50:00;7.25;;;5.30;;
23121;SDS011;11730;51.248;22.534;2023-02-26T05:52:28;4.30;;;3.90;;
23121;SDS011;11730;51.248;22.534;2023-02-26T05:54:55;5.18;;;4.00;;
23121;SDS011;11730;51.248;22.534;2023-02-26T05:57:23;5.22;;;3.97;;
23121;SDS011;11730;51.248;22.534;2023-02-26T05:59:50;5.90;;;3.88;;
23121;SDS011;11730;51.248;22.534;2023-02-26T06:02:17;5.13;;;4.05;;
23121;SDS011;11730;51.248;22.534;2023-02-26T06:04:45;6.25;;;3.95;;
23121;SDS011;11730;51.248;22.534;2023-02-26T06:07:12;4.80;;;3.70;;
23121;SDS011;11730;51.248;22.534;2023-02-26T06:09:39;4.93;;;3.75;;
23121;SDS011;11730;51.248;22.534;2023-02-26T06:12:06;4.63;;;3.53;;
23121;SDS011;11730;51.248;22.534;2023-02-26T06:14:34;5.35;;;4.07;;
23121;SDS011;11730;51.248;22.534;2023-02-26T06:17:02;5.10;;;3.83;;
23121;SDS011;11730;51.248;22.534;2023-02-26T06:19:29;5.60;;;4.20;;
23121;SDS011;11730;51.248;22.534;2023-02-26T06:21:57;4.97;;;4.13;;
23121;SDS011;11730;51.248;22.534;2023-02-26T06:24:24;6.03;;;4.22;;
23121;SDS011;11730;51.248;22.534;2023-02-26T06:26:51;6.50;;;4.45;;
23121;SDS011;11730;51.248;22.534;2023-02-26T06:29:19;6.45;;;4.32;;
23121;SDS011;11730;51.248;22.534;2023-02-26T06:31:46;7.47;;;4.68;;
23121;SDS011;11730;51.248;22.534;2023-02-26T06:34:13;8.57;;;5.18;;
23121;SDS011;11730;51.248;22.534;2023-02-26T06:36:40;8.05;;;4.88;;
23121;SDS011;11730;51.248;22.534;2023-02-26T06:39:08;7.25;;;4.72;;
23121;SDS011;11730;51.248;22.534;2023-02-26T06:41:35;7.75;;;5.32;;
23121;SDS011;11730;51.248;22.534;2023-02-26T06:44:02;8.00;;;4.90;;
23121;SDS011;11730;51.248;22.534;2023-02-26T06:46:29;5.90;;;4.65;;
23121;SDS011;11730;51.248;22.534;2023-02-26T06:48:56;7.35;;;4.47;;
23121;SDS011;11730;51.248;22.534;2023-02-26T06:51:23;8.82;;;6.03;;
23121;SDS011;11730;51.248;22.534;2023-02-26T06:53:51;7.22;;;5.50;;
23121;SDS011;11730;51.248;22.534;2023-02-26T06:56:18;5.97;;;4.93;;
23121;SDS011;11730;51.248;22.534;2023-02-26T06:58:47;6.43;;;5.00;;
23121;SDS011;11730;51.248;22.534;2023-02-26T07:01:15;9.90;;;5.95;;
23121;SDS011;11730;51.248;22.534;2023-02-26T07:03:42;8.35;;;5.63;;
23121;SDS011;11730;51.248;22.534;2023-02-26T07:06:10;6.28;;;5.18;;
23121;SDS011;11730;51.248;22.534;2023-02-26T07:08:52;7.90;;;5.53;;
23121;SDS011;11730;51.248;22.534;2023-02-26T07:11:20;7.97;;;4.75;;
23121;SDS011;11730;51.248;22.534;2023-02-26T07:13:47;8.27;;;5.85;;
23121;SDS011;11730;51.248;22.534;2023-02-26T07:16:14;7.85;;;5.03;;
23121;SDS011;11730;51.248;22.534;2023-02-26T07:18:41;5.13;;;4.45;;
23121;SDS011;11730;51.248;22.534;2023-02-26T07:21:08;6.82;;;5.18;;
23121;SDS011;11730;51.248;22.534;2023-02-26T07:23:35;8.38;;;5.65;;
23121;SDS011;11730;51.248;22.534;2023-02-26T07:26:02;8.45;;;5.70;;
23121;SDS011;11730;51.248;22.534;2023-02-26T07:28:29;11.48;;;5.75;;
23121;SDS011;11730;51.248;22.534;2023-02-26T07:30:57;8.50;;;5.82;;
23121;SDS011;11730;51.248;22.534;2023-02-26T07:33:24;7.78;;;5.18;;
23121;SDS011;11730;51.248;22.534;2023-02-26T07:35:53;10.55;;;6.10;;
23121;SDS011;11730;51.248;22.534;2023-02-26T07:38:20;6.85;;;5.22;;
23121;SDS011;11730;51.248;22.534;2023-02-26T07:40:47;13.68;;;5.25;;
23121;SDS011;11730;51.248;22.534;2023-02-26T07:43:14;10.70;;;4.80;;
23121;SDS011;11730;51.248;22.534;2023-02-26T07:45:42;5.97;;;4.65;;
23121;SDS011;11730;51.248;22.534;2023-02-26T07:48:09;8.90;;;5.25;;
23121;SDS011;11730;51.248;22.534;2023-02-26T07:50:36;8.75;;;5.25;;
23121;SDS011;11730;51.248;22.534;2023-02-26T07:53:03;8.13;;;5.18;;
23121;SDS011;11730;51.248;22.534;2023-02-26T07:55:30;7.45;;;5.18;;
23121;SDS011;11730;51.248;22.534;2023-02-26T07:57:58;9.20;;;4.82;;
23121;SDS011;11730;51.248;22.534;2023-02-26T08:00:25;6.03;;;4.93;;
23121;SDS011;11730;51.248;22.534;2023-02-26T08:02:52;7.20;;;5.15;;
23121;SDS011;11730;51.248;22.534;2023-02-26T08:05:19;6.80;;;5.22;;
23121;SDS011;11730;51.248;22.534;2023-02-26T08:07:46;6.88;;;4.95;;
23121;SDS011;11730;51.248;22.534;2023-02-26T08:10:13;9.13;;;5.07;;
23121;SDS011;11730;51.248;22.534;2023-02-26T08:12:41;7.53;;;4.97;;
23121;SDS011;11730;51.248;22.534;2023-02-26T08:15:08;7.65;;;5.20;;
23121;SDS011;11730;51.248;22.534;2023-02-26T08:17:37;7.90;;;5.68;;
23121;SDS011;11730;51.248;22.534;2023-02-26T08:20:04;7.00;;;4.90;;
23121;SDS011;11730;51.248;22.534;2023-02-26T08:22:32;7.30;;;5.22;;
23121;SDS011;11730;51.248;22.534;2023-02-26T08:25:00;7.28;;;5.30;;
23121;SDS011;11730;51.248;22.534;2023-02-26T08:27:27;6.88;;;5.03;;
23121;SDS011;11730;51.248;22.534;2023-02-26T08:29:54;6.35;;;4.82;;
23121;SDS011;11730;51.248;22.534;2023-02-26T08:32:21;7.68;;;5.13;;
23121;SDS011;11730;51.248;22.534;2023-02-26T08:34:48;7.13;;;5.20;;
23121;SDS011;11730;51.248;22.534;2023-02-26T08:37:15;8.95;;;5.45;;
23121;SDS011;11730;51.248;22.534;2023-02-26T08:39:43;5.93;;;4.97;;
23121;SDS011;11730;51.248;22.534;2023-02-26T08:42:10;7.43;;;5.13;;
23121;SDS011;11730;51.248;22.534;2023-02-26T08:44:37;6.78;;;4.70;;
23121;SDS011;11730;51.248;22.534;2023-02-26T08:47:05;8.50;;;5.15;;
23121;SDS011;11730;51.248;22.534;2023-02-26T08:49:32;9.50;;;5.60;;
23121;SDS011;11730;51.248;22.534;2023-02-26T08:51:58;7.78;;;5.28;;
23121;SDS011;11730;51.248;22.534;2023-02-26T08:54:26;9.45;;;5.70;;
23121;SDS011;11730;51.248;22.534;2023-02-26T08:56:53;6.63;;;4.75;;
23121;SDS011;11730;51.248;22.534;2023-02-26T08:59:23;7.63;;;4.90;;
23121;SDS011;11730;51.248;22.534;2023-02-26T09:01:50;7.03;;;4.50;;
23121;SDS011;11730;51.248;22.534;2023-02-26T09:04:18;7.00;;;4.90;;
23121;SDS011;11730;51.248;22.534;2023-02-26T09:06:45;7.55;;;4.80;;
23121;SDS011;11730;51.248;22.534;2023-02-26T09:09:12;6.28;;;4.45;;
23121;SDS011;11730;51.248;22.534;2023-02-26T09:11:39;5.15;;;4.32;;
23121;SDS011;11730;51.248;22.534;2023-02-26T09:14:06;5.97;;;4.18;;
23121;SDS011;11730;51.248;22.534;2023-02-26T09:16:35;5.70;;;4.28;;
23121;SDS011;11730;51.248;22.534;2023-02-26T09:19:03;5.50;;;3.83;;
23121;SDS011;11730;51.248;22.534;2023-02-26T09:21:31;4.88;;;3.60;;
23121;SDS011;11730;51.248;22.534;2023-02-26T09:24:01;4.43;;;3.80;;
23121;SDS011;11730;51.248;22.534;2023-02-26T09:26:28;5.05;;;4.00;;
23121;SDS011;11730;51.248;22.534;2023-02-26T09:28:55;8.18;;;4.50;;
23121;SDS011;11730;51.248;22.534;2023-02-26T09:31:22;5.95;;;4.65;;
23121;SDS011;11730;51.248;22.534;2023-02-26T09:33:49;8.05;;;4.55;;
23121;SDS011;11730;51.248;22.534;2023-02-26T09:36:16;10.30;;;5.50;;
23121;SDS011;11730;51.248;22.534;2023-02-26T09:38:44;5.45;;;4.50;;
23121;SDS011;11730;51.248;22.534;2023-02-26T09:41:30;5.15;;;4.03;;
23121;SDS011;11730;51.248;22.534;2023-02-26T09:44:08;6.00;;;4.07;;
23121;SDS011;11730;51.248;22.534;2023-02-26T09:52:29;5.75;;;4.53;;
23121;SDS011;11730;51.248;22.534;2023-02-26T09:54:59;6.20;;;4.43;;
23121;SDS011;11730;51.248;22.534;2023-02-26T09:57:51;8.30;;;4.60;;
23121;SDS011;11730;51.248;22.534;2023-02-26T10:08:39;6.68;;;4.78;;
23121;SDS011;11730;51.248;22.534;2023-02-26T10:11:16;7.13;;;4.72;;
23121;SDS011;11730;51.248;22.534;2023-02-26T10:13:53;6.47;;;4.70;;
23121;SDS011;11730;51.248;22.534;2023-02-26T10:16:27;6.38;;;4.47;;
23121;SDS011;11730;51.248;22.534;2023-02-26T10:19:03;6.57;;;4.15;;
23121;SDS011;11730;51.248;22.534;2023-02-26T10:24:14;6.75;;;4.75;;
23121;SDS011;11730;51.248;22.534;2023-02-26T10:26:55;6.95;;;5.05;;
23121;SDS011;11730;51.248;22.534;2023-02-26T10:34:55;7.57;;;5.18;;
23121;SDS011;11730;51.248;22.534;2023-02-26T10:37:46;6.93;;;4.80;;
23121;SDS011;11730;51.248;22.534;2023-02-26T10:40:46;7.38;;;5.07;;
23121;SDS011;11730;51.248;22.534;2023-02-26T10:51:17;8.82;;;5.13;;
23121;SDS011;11730;51.248;22.534;2023-02-26T10:53:53;8.00;;;4.60;;
23121;SDS011;11730;51.248;22.534;2023-02-26T10:56:31;6.07;;;4.43;;
23121;SDS011;11730;51.248;22.534;2023-02-26T10:58:59;7.85;;;4.63;;
23121;SDS011;11730;51.248;22.534;2023-02-26T11:01:28;5.38;;;4.00;;
23121;SDS011;11730;51.248;22.534;2023-02-26T11:04:00;6.38;;;4.60;;
23121;SDS011;11730;51.248;22.534;2023-02-26T11:06:33;6.30;;;5.03;;
23121;SDS011;11730;51.248;22.534;2023-02-26T11:11:51;5.72;;;4.35;;
23121;SDS011;11730;51.248;22.534;2023-02-26T11:14:20;7.50;;;5.07;;
23121;SDS011;11730;51.248;22.534;2023-02-26T11:16:51;6.50;;;4.20;;
23121;SDS011;11730;51.248;22.534;2023-02-26T11:19:30;6.05;;;5.20;;
23121;SDS011;11730;51.248;22.534;2023-02-26T11:22:02;8.35;;;4.20;;
23121;SDS011;11730;51.248;22.534;2023-02-26T11:26:57;9.43;;;5.35;;
23121;SDS011;11730;51.248;22.534;2023-02-26T11:29:40;8.60;;;4.90;;
23121;SDS011;11730;51.248;22.534;2023-02-26T11:32:15;10.32;;;5.90;;
23121;SDS011;11730;51.248;22.534;2023-02-26T11:34:48;9.18;;;5.63;;
23121;SDS011;11730;51.248;22.534;2023-02-26T11:37:19;11.52;;;5.72;;
23121;SDS011;11730;51.248;22.534;2023-02-26T11:39:52;9.75;;;6.47;;
23121;SDS011;11730;51.248;22.534;2023-02-26T11:42:24;9.55;;;5.30;;
23121;SDS011;11730;51.248;22.534;2023-02-26T11:44:52;9.75;;;5.40;;
23121;SDS011;11730;51.248;22.534;2023-02-26T11:47:20;7.85;;;4.93;;
23121;SDS011;11730;51.248;22.534;2023-02-26T11:49:55;7.93;;;4.93;;
23121;SDS011;11730;51.248;22.534;2023-02-26T11:52:43;7.55;;;5.03;;
23121;SDS011;11730;51.248;22.534;2023-02-26T11:55:18;5.50;;;4.57;;
23121;SDS011;11730;51.248;22.534;2023-02-26T11:57:54;7.63;;;4.72;;
23121;SDS011;11730;51.248;22.534;2023-02-26T12:02:50;5.80;;;4.65;;
23121;SDS011;11730;51.248;22.534;2023-02-26T12:05:17;10.15;;;5.53;;
23121;SDS011;11730;51.248;22.534;2023-02-26T12:07:44;8.77;;;5.15;;
23121;SDS011;11730;51.248;22.534;2023-02-26T12:10:15;7.75;;;4.95;;
23121;SDS011;11730;51.248;22.534;2023-02-26T12:15:41;8.32;;;4.88;;
23121;SDS011;11730;51.248;22.534;2023-02-26T12:18:29;6.55;;;4.93;;
23121;SDS011;11730;51.248;22.534;2023-02-26T12:34:46;8.60;;;5.30;;
23121;SDS011;11730;51.248;22.534;2023-02-26T12:40:24;9.27;;;5.57;;
23121;SDS011;11730;51.248;22.534;2023-02-26T12:43:06;9.77;;;5.72;;
23121;SDS011;11730;51.248;22.534;2023-02-26T12:45:51;10.88;;;6.05;;
23121;SDS011;11730;51.248;22.534;2023-02-26T12:48:38;7.65;;;5.63;;
23121;SDS011;11730;51.248;22.534;2023-02-26T13:16:13;5.85;;;4.80;;
23121;SDS011;11730;51.248;22.534;2023-02-26T13:21:14;6.30;;;4.60;;
23121;SDS011;11730;51.248;22.534;2023-02-26T13:26:16;7.63;;;4.72;;
23121;SDS011;11730;51.248;22.534;2023-02-26T13:28:47;9.57;;;4.68;;
23121;SDS011;11730;51.248;22.534;2023-02-26T13:31:21;6.18;;;4.47;;
23121;SDS011;11730;51.248;22.534;2023-02-26T13:33:55;5.85;;;4.70;;
23121;SDS011;11730;51.248;22.534;2023-02-26T13:36:28;5.33;;;4.83;;
23121;SDS011;11730;51.248;22.534;2023-02-26T13:50:28;5.80;;;4.10;;
23121;SDS011;11730;51.248;22.534;2023-02-26T13:52:55;7.72;;;4.68;;
23121;SDS011;11730;51.248;22.534;2023-02-26T13:55:42;7.72;;;4.93;;
23121;SDS011;11730;51.248;22.534;2023-02-26T14:03:45;6.88;;;5.13;;
23121;SDS011;11730;51.248;22.534;2023-02-26T14:09:03;9.88;;;5.85;;
23121;SDS011;11730;51.248;22.534;2023-02-26T14:12:01;9.38;;;5.30;;
23121;SDS011;11730;51.248;22.534;2023-02-26T14:19:27;9.27;;;5.05;;
23121;SDS011;11730;51.248;22.534;2023-02-26T14:24:52;9.25;;;5.10;;
23121;SDS011;11730;51.248;22.534;2023-02-26T14:31:45;6.15;;;4.50;;
23121;SDS011;11730;51.248;22.534;2023-02-26T14:36:27;6.45;;;4.85;;
23121;SDS011;11730;51.248;22.534;2023-02-26T14:39:03;6.53;;;4.47;;
23121;SDS011;11730;51.248;22.534;2023-02-26T14:41:33;6.97;;;4.75;;
23121;SDS011;11730;51.248;22.534;2023-02-26T14:46:32;7.35;;;4.40;;
23121;SDS011;11730;51.248;22.534;2023-02-26T14:49:00;8.30;;;5.13;;
23121;SDS011;11730;51.248;22.534;2023-02-26T14:56:56;8.40;;;4.93;;
23121;SDS011;11730;51.248;22.534;2023-02-26T15:05:14;5.85;;;4.85;;
23121;SDS011;11730;51.248;22.534;2023-02-26T15:10:36;7.65;;;5.15;;
23121;SDS011;11730;51.248;22.534;2023-02-26T15:24:27;7.72;;;5.47;;
23121;SDS011;11730;51.248;22.534;2023-02-26T15:27:02;8.77;;;5.80;;
23121;SDS011;11730;51.248;22.534;2023-02-26T15:29:34;8.27;;;5.55;;
23121;SDS011;11730;51.248;22.534;2023-02-26T15:32:26;7.20;;;5.30;;
23121;SDS011;11730;51.248;22.534;2023-02-26T15:35:00;7.47;;;5.22;;
23121;SDS011;11730;51.248;22.534;2023-02-26T15:40:18;9.05;;;5.80;;
23121;SDS011;11730;51.248;22.534;2023-02-26T15:42:47;10.35;;;6.68;;
23121;SDS011;11730;51.248;22.534;2023-02-26T15:45:50;8.98;;;5.82;;
23121;SDS011;11730;51.248;22.534;2023-02-26T15:48:19;11.77;;;6.93;;
23121;SDS011;11730;51.248;22.534;2023-02-26T15:53:34;13.50;;;7.25;;
23121;SDS011;11730;51.248;22.534;2023-02-26T15:56:10;13.05;;;5.88;;
23121;SDS011;11730;51.248;22.534;2023-02-26T15:58:46;12.25;;;6.03;;
23121;SDS011;11730;51.248;22.534;2023-02-26T16:01:17;12.88;;;5.93;;
23121;SDS011;11730;51.248;22.534;2023-02-26T16:03:49;7.53;;;4.82;;
23121;SDS011;11730;51.248;22.534;2023-02-26T16:06:19;7.90;;;5.20;;
23121;SDS011;11730;51.248;22.534;2023-02-26T16:08:58;8.82;;;5.18;;
23121;SDS011;11730;51.248;22.534;2023-02-26T16:11:27;8.40;;;5.00;;
23121;SDS011;11730;51.248;22.534;2023-02-26T16:14:02;7.25;;;5.03;;
23121;SDS011;11730;51.248;22.534;2023-02-26T16:16:39;5.88;;;4.18;;
23121;SDS011;11730;51.248;22.534;2023-02-26T16:19:14;7.30;;;4.72;;
23121;SDS011;11730;51.248;22.534;2023-02-26T16:21:42;7.20;;;4.47;;
23121;SDS011;11730;51.248;22.534;2023-02-26T16:24:14;5.47;;;4.00;;
23121;SDS011;11730;51.248;22.534;2023-02-26T16:26:47;7.35;;;4.47;;
23121;SDS011;11730;51.248;22.534;2023-02-26T16:29:18;6.75;;;4.60;;
23121;SDS011;11730;51.248;22.534;2023-02-26T16:31:58;7.25;;;5.18;;
23121;SDS011;11730;51.248;22.534;2023-02-26T16:37:24;7.03;;;4.57;;
23121;SDS011;11730;51.248;22.534;2023-02-26T16:39:54;7.50;;;4.53;;
23121;SDS011;11730;51.248;22.534;2023-02-26T16:47:46;6.13;;;4.10;;
23121;SDS011;11730;51.248;22.534;2023-02-26T16:50:17;6.25;;;4.50;;
23121;SDS011;11730;51.248;22.534;2023-02-26T16:52:57;8.02;;;4.78;;
23121;SDS011;11730;51.248;22.534;2023-02-26T16:55:33;7.88;;;4.70;;
23121;SDS011;11730;51.248;22.534;2023-02-26T16:58:02;8.88;;;4.70;;
23121;SDS011;11730;51.248;22.534;2023-02-26T17:00:33;9.10;;;5.03;;
23121;SDS011;11730;51.248;22.534;2023-02-26T17:03:13;10.43;;;5.32;;
23121;SDS011;11730;51.248;22.534;2023-02-26T17:06:28;9.30;;;5.32;;
23121;SDS011;11730;51.248;22.534;2023-02-26T17:08:53;9.68;;;4.90;;
23121;SDS011;11730;51.248;22.534;2023-02-26T17:11:27;6.55;;;4.75;;
23121;SDS011;11730;51.248;22.534;2023-02-26T17:16:49;7.43;;;4.40;;
23121;SDS011;11730;51.248;22.534;2023-02-26T17:19:17;10.32;;;5.95;;
23121;SDS011;11730;51.248;22.534;2023-02-26T17:21:48;12.18;;;6.82;;
23121;SDS011;11730;51.248;22.534;2023-02-26T17:24:20;12.10;;;6.50;;
23121;SDS011;11730;51.248;22.534;2023-02-26T17:26:54;12.35;;;7.05;;
23121;SDS011;11730;51.248;22.534;2023-02-26T17:29:32;13.82;;;7.90;;
23121;SDS011;11730;51.248;22.534;2023-02-26T17:32:05;18.77;;;9.23;;
23121;SDS011;11730;51.248;22.534;2023-02-26T17:34:50;23.40;;;11.00;;
23121;SDS011;11730;51.248;22.534;2023-02-26T17:37:17;22.60;;;10.15;;
23121;SDS011;11730;51.248;22.534;2023-02-26T17:39:45;22.33;;;10.85;;
23121;SDS011;11730;51.248;22.534;2023-02-26T17:42:16;19.17;;;9.35;;
23121;SDS011;11730;51.248;22.534;2023-02-26T17:44:48;18.85;;;9.00;;
23121;SDS011;11730;51.248;22.534;2023-02-26T17:47:17;16.00;;;8.23;;
23121;SDS011;11730;51.248;22.534;2023-02-26T17:49:46;16.75;;;7.95;;
23121;SDS011;11730;51.248;22.534;2023-02-26T17:52:14;13.07;;;7.68;;
23121;SDS011;11730;51.248;22.534;2023-02-26T17:54:41;13.80;;;7.20;;
23121;SDS011;11730;51.248;22.534;2023-02-26T17:57:11;11.98;;;6.22;;
23121;SDS011;11730;51.248;22.534;2023-02-26T17:59:42;11.13;;;5.97;;
23121;SDS011;11730;51.248;22.534;2023-02-26T18:02:14;11.50;;;6.00;;
23121;SDS011;11730;51.248;22.534;2023-02-26T18:04:43;8.18;;;5.30;;
23121;SDS011;11730;51.248;22.534;2023-02-26T18:07:12;10.10;;;6.47;;
23121;SDS011;11730;51.248;22.534;2023-02-26T18:09:42;11.73;;;6.63;;
23121;SDS011;11730;51.248;22.534;2023-02-26T18:12:13;13.15;;;6.80;;
23121;SDS011;11730;51.248;22.534;2023-02-26T18:14:41;12.65;;;6.55;;
23121;SDS011;11730;51.248;22.534;2023-02-26T18:17:10;13.02;;;6.32;;
23121;SDS011;11730;51.248;22.534;2023-02-26T18:19:42;10.48;;;6.07;;
23121;SDS011;11730;51.248;22.534;2023-02-26T18:22:12;13.07;;;6.30;;
23121;SDS011;11730;51.248;22.534;2023-02-26T18:24:39;14.07;;;6.85;;
23121;SDS011;11730;51.248;22.534;2023-02-26T18:27:11;10.93;;;6.65;;
23121;SDS011;11730;51.248;22.534;2023-02-26T18:29:40;13.07;;;6.20;;
23121;SDS011;11730;51.248;22.534;2023-02-26T18:32:14;15.30;;;7.05;;
23121;SDS011;11730;51.248;22.534;2023-02-26T18:34:43;13.18;;;7.03;;
23121;SDS011;11730;51.248;22.534;2023-02-26T18:37:14;14.95;;;7.80;;
23121;SDS011;11730;51.248;22.534;2023-02-26T18:39:43;16.60;;;7.57;;
23121;SDS011;11730;51.248;22.534;2023-02-26T18:44:53;14.37;;;8.47;;
23121;SDS011;11730;51.248;22.534;2023-02-26T18:47:21;15.52;;;8.15;;